sensor_id;sensor_type;location;lat;lon;timestamp;temperature;humidity
40848;DHT22;26570;50.962;5.340;2023-04-25T00:04:08;8.70;99.90
40848;DHT22;26570;50.962;5.340;2023-04-25T00:06:55;8.70;99.90
40848;DHT22;26570;50.962;5.340;2023-04-25T00:09:42;8.80;99.90
40848;DHT22;26570;50.962;5.340;2023-04-25T00:12:27;8.70;99.90
40848;DHT22;26570;50.962;5.340;2023-04-25T00:15:18;8.70;99.90
40848;DHT22;26570;50.962;5.340;2023-04-25T00:18:04;8.70;99.90
40848;DHT22;26570;50.962;5.340;2023-04-25T00:20:51;8.90;99.90
40848;DHT22;26570;50.962;5.340;2023-04-25T00:23:37;9.20;99.90
40848;DHT22;26570;50.962;5.340;2023-04-25T00:26:46;9.20;99.90
40848;DHT22;26570;50.962;5.340;2023-04-25T00:29:32;9.10;99.90
40848;DHT22;26570;50.962;5.340;2023-04-25T00:32:17;9.10;99.90
40848;DHT22;26570;50.962;5.340;2023-04-25T00:35:03;9.20;99.90
40848;DHT22;26570;50.962;5.340;2023-04-25T00:37:48;9.20;99.90
40848;DHT22;26570;50.962;5.340;2023-04-25T00:40:34;9.00;99.90
40848;DHT22;26570;50.962;5.340;2023-04-25T00:43:19;8.90;99.90
40848;DHT22;26570;50.962;5.340;2023-04-25T00:46:06;8.90;99.90
40848;DHT22;26570;50.962;5.340;2023-04-25T00:48:51;9.00;99.90
40848;DHT22;26570;50.962;5.340;2023-04-25T00:51:37;8.90;99.90
40848;DHT22;26570;50.962;5.340;2023-04-25T00:54:23;8.80;99.90
40848;DHT22;26570;50.962;5.340;2023-04-25T00:57:08;9.00;99.90
40848;DHT22;26570;50.962;5.340;2023-04-25T00:59:55;8.90;99.90
40848;DHT22;26570;50.962;5.340;2023-04-25T01:02:41;8.90;99.90
40848;DHT22;26570;50.962;5.340;2023-04-25T01:05:30;8.80;99.90
40848;DHT22;26570;50.962;5.340;2023-04-25T01:08:15;8.60;99.90
40848;DHT22;26570;50.962;5.340;2023-04-25T01:11:01;8.50;99.90
40848;DHT22;26570;50.962;5.340;2023-04-25T01:13:47;8.90;99.90
40848;DHT22;26570;50.962;5.340;2023-04-25T01:16:33;8.70;99.90
40848;DHT22;26570;50.962;5.340;2023-04-25T01:19:19;9.10;99.90
40848;DHT22;26570;50.962;5.340;2023-04-25T01:22:05;9.00;99.90
40848;DHT22;26570;50.962;5.340;2023-04-25T01:24:51;8.90;99.90
40848;DHT22;26570;50.962;5.340;2023-04-25T01:27:59;8.80;99.90
40848;DHT22;26570;50.962;5.340;2023-04-25T01:30:45;9.00;99.90
40848;DHT22;26570;50.962;5.340;2023-04-25T01:33:31;8.90;99.90
40848;DHT22;26570;50.962;5.340;2023-04-25T01:36:16;9.00;99.90
40848;DHT22;26570;50.962;5.340;2023-04-25T01:39:03;9.00;99.90
40848;DHT22;26570;50.962;5.340;2023-04-25T01:41:48;8.90;99.90
40848;DHT22;26570;50.962;5.340;2023-04-25T01:44:34;9.00;99.90
40848;DHT22;26570;50.962;5.340;2023-04-25T01:47:20;8.80;99.90
40848;DHT22;26570;50.962;5.340;2023-04-25T01:50:07;8.70;99.90
40848;DHT22;26570;50.962;5.340;2023-04-25T01:52:53;9.00;99.90
40848;DHT22;26570;50.962;5.340;2023-04-25T01:55:39;9.00;99.90
40848;DHT22;26570;50.962;5.340;2023-04-25T01:58:25;8.90;99.90
40848;DHT22;26570;50.962;5.340;2023-04-25T02:01:11;8.80;99.90
40848;DHT22;26570;50.962;5.340;2023-04-25T02:03:57;8.60;99.90
40848;DHT22;26570;50.962;5.340;2023-04-25T02:06:42;8.60;99.90
40848;DHT22;26570;50.962;5.340;2023-04-25T02:09:28;8.80;99.90
40848;DHT22;26570;50.962;5.340;2023-04-25T02:12:14;8.90;99.90
40848;DHT22;26570;50.962;5.340;2023-04-25T02:14:59;8.80;99.90
40848;DHT22;26570;50.962;5.340;2023-04-25T02:17:45;8.70;99.90
40848;DHT22;26570;50.962;5.340;2023-04-25T02:20:31;8.90;99.90
40848;DHT22;26570;50.962;5.340;2023-04-25T02:23:16;8.90;99.90
40848;DHT22;26570;50.962;5.340;2023-04-25T02:26:03;9.00;99.90
40848;DHT22;26570;50.962;5.340;2023-04-25T02:28:50;8.60;99.90
40848;DHT22;26570;50.962;5.340;2023-04-25T02:31:36;8.40;99.90
40848;DHT22;26570;50.962;5.340;2023-04-25T02:34:44;8.80;99.90
40848;DHT22;26570;50.962;5.340;2023-04-25T02:37:31;8.60;99.90
40848;DHT22;26570;50.962;5.340;2023-04-25T02:40:16;8.60;99.90
40848;DHT22;26570;50.962;5.340;2023-04-25T02:43:24;8.80;99.90
40848;DHT22;26570;50.962;5.340;2023-04-25T02:46:10;8.80;99.90
40848;DHT22;26570;50.962;5.340;2023-04-25T02:48:55;8.80;99.90
40848;DHT22;26570;50.962;5.340;2023-04-25T02:51:41;8.80;99.90
40848;DHT22;26570;50.962;5.340;2023-04-25T02:54:26;8.70;99.90
40848;DHT22;26570;50.962;5.340;2023-04-25T02:57:12;8.70;99.90
40848;DHT22;26570;50.962;5.340;2023-04-25T02:59:58;8.70;99.90
40848;DHT22;26570;50.962;5.340;2023-04-25T03:02:44;8.60;99.90
40848;DHT22;26570;50.962;5.340;2023-04-25T03:05:30;8.50;99.90
40848;DHT22;26570;50.962;5.340;2023-04-25T03:08:16;8.60;99.90
40848;DHT22;26570;50.962;5.340;2023-04-25T03:11:01;8.40;99.90
40848;DHT22;26570;50.962;5.340;2023-04-25T03:13:47;8.50;99.90
40848;DHT22;26570;50.962;5.340;2023-04-25T03:16:33;8.40;99.90
40848;DHT22;26570;50.962;5.340;2023-04-25T03:19:19;8.50;99.90
40848;DHT22;26570;50.962;5.340;2023-04-25T03:22:05;8.40;99.90
40848;DHT22;26570;50.962;5.340;2023-04-25T03:24:51;8.40;99.90
40848;DHT22;26570;50.962;5.340;2023-04-25T03:27:37;8.50;99.90
40848;DHT22;26570;50.962;5.340;2023-04-25T03:30:23;8.40;99.90
40848;DHT22;26570;50.962;5.340;2023-04-25T03:33:08;8.50;99.90
40848;DHT22;26570;50.962;5.340;2023-04-25T03:35:54;8.50;99.90
40848;DHT22;26570;50.962;5.340;2023-04-25T03:38:39;8.40;99.90
40848;DHT22;26570;50.962;5.340;2023-04-25T03:41:26;8.60;99.90
40848;DHT22;26570;50.962;5.340;2023-04-25T03:44:12;8.50;99.90
40848;DHT22;26570;50.962;5.340;2023-04-25T03:46:58;8.60;99.90
40848;DHT22;26570;50.962;5.340;2023-04-25T03:49:43;8.60;99.90
40848;DHT22;26570;50.962;5.340;2023-04-25T03:52:29;8.70;99.90
40848;DHT22;26570;50.962;5.340;2023-04-25T03:55:14;8.60;99.90
40848;DHT22;26570;50.962;5.340;2023-04-25T03:58:00;8.70;99.90
40848;DHT22;26570;50.962;5.340;2023-04-25T04:00:46;8.50;99.90
40848;DHT22;26570;50.962;5.340;2023-04-25T04:03:31;8.60;99.90
40848;DHT22;26570;50.962;5.340;2023-04-25T04:06:17;8.40;99.90
40848;DHT22;26570;50.962;5.340;2023-04-25T04:09:03;8.30;99.90
40848;DHT22;26570;50.962;5.340;2023-04-25T04:11:49;8.40;99.90
40848;DHT22;26570;50.962;5.340;2023-04-25T04:14:35;8.10;99.90
40848;DHT22;26570;50.962;5.340;2023-04-25T04:17:20;8.00;99.90
40848;DHT22;26570;50.962;5.340;2023-04-25T04:20:06;7.90;99.90
40848;DHT22;26570;50.962;5.340;2023-04-25T04:23:16;7.90;99.90
40848;DHT22;26570;50.962;5.340;2023-04-25T04:26:02;7.80;99.90
40848;DHT22;26570;50.962;5.340;2023-04-25T04:28:47;7.70;99.90
40848;DHT22;26570;50.962;5.340;2023-04-25T04:31:33;7.90;99.90
40848;DHT22;26570;50.962;5.340;2023-04-25T04:34:19;7.80;99.90
40848;DHT22;26570;50.962;5.340;2023-04-25T04:37:04;8.00;99.90
40848;DHT22;26570;50.962;5.340;2023-04-25T04:39:52;7.90;99.90
40848;DHT22;26570;50.962;5.340;2023-04-25T04:42:37;7.70;99.90
40848;DHT22;26570;50.962;5.340;2023-04-25T04:45:23;7.80;99.90
40848;DHT22;26570;50.962;5.340;2023-04-25T04:48:09;7.90;99.90
40848;DHT22;26570;50.962;5.340;2023-04-25T04:50:56;8.20;99.90
40848;DHT22;26570;50.962;5.340;2023-04-25T04:53:42;8.20;99.90
40848;DHT22;26570;50.962;5.340;2023-04-25T04:56:29;8.20;99.90
40848;DHT22;26570;50.962;5.340;2023-04-25T04:59:15;8.20;99.90
40848;DHT22;26570;50.962;5.340;2023-04-25T05:02:01;8.10;99.90
40848;DHT22;26570;50.962;5.340;2023-04-25T05:04:48;8.20;99.90
40848;DHT22;26570;50.962;5.340;2023-04-25T05:07:35;8.20;99.90
40848;DHT22;26570;50.962;5.340;2023-04-25T05:10:21;8.20;99.90
40848;DHT22;26570;50.962;5.340;2023-04-25T05:13:06;8.20;99.90
40848;DHT22;26570;50.962;5.340;2023-04-25T05:15:53;8.20;99.90
40848;DHT22;26570;50.962;5.340;2023-04-25T05:18:39;8.30;99.90
40848;DHT22;26570;50.962;5.340;2023-04-25T05:21:25;8.30;99.90
40848;DHT22;26570;50.962;5.340;2023-04-25T05:24:11;8.30;99.90
40848;DHT22;26570;50.962;5.340;2023-04-25T05:26:57;8.40;99.90
40848;DHT22;26570;50.962;5.340;2023-04-25T05:29:43;8.60;99.90
40848;DHT22;26570;50.962;5.340;2023-04-25T05:32:28;8.60;99.90
40848;DHT22;26570;50.962;5.340;2023-04-25T05:35:14;8.60;99.90
40848;DHT22;26570;50.962;5.340;2023-04-25T05:38:00;8.80;99.90
40848;DHT22;26570;50.962;5.340;2023-04-25T05:40:45;8.70;99.90
40848;DHT22;26570;50.962;5.340;2023-04-25T05:43:31;8.80;99.90
40848;DHT22;26570;50.962;5.340;2023-04-25T05:46:17;8.70;99.90
40848;DHT22;26570;50.962;5.340;2023-04-25T05:49:02;8.90;99.90
40848;DHT22;26570;50.962;5.340;2023-04-25T05:51:48;8.80;99.90
40848;DHT22;26570;50.962;5.340;2023-04-25T05:54:34;8.70;99.90
40848;DHT22;26570;50.962;5.340;2023-04-25T05:57:25;8.70;99.90
40848;DHT22;26570;50.962;5.340;2023-04-25T06:00:14;8.60;99.90
40848;DHT22;26570;50.962;5.340;2023-04-25T06:03:00;8.70;99.90
40848;DHT22;26570;50.962;5.340;2023-04-25T06:06:09;8.90;99.90
40848;DHT22;26570;50.962;5.340;2023-04-25T06:08:54;8.80;99.90
40848;DHT22;26570;50.962;5.340;2023-04-25T06:11:40;8.90;99.90
40848;DHT22;26570;50.962;5.340;2023-04-25T06:14:25;9.10;99.90
40848;DHT22;26570;50.962;5.340;2023-04-25T06:17:11;9.10;99.90
40848;DHT22;26570;50.962;5.340;2023-04-25T06:19:57;9.10;99.90
40848;DHT22;26570;50.962;5.340;2023-04-25T06:22:43;9.20;99.90
40848;DHT22;26570;50.962;5.340;2023-04-25T06:25:31;9.30;99.90
40848;DHT22;26570;50.962;5.340;2023-04-25T06:28:41;9.70;99.90
40848;DHT22;26570;50.962;5.340;2023-04-25T06:31:25;9.70;99.90
40848;DHT22;26570;50.962;5.340;2023-04-25T06:34:10;9.60;99.90
40848;DHT22;26570;50.962;5.340;2023-04-25T06:36:55;9.50;99.90
40848;DHT22;26570;50.962;5.340;2023-04-25T06:39:43;9.70;99.90
40848;DHT22;26570;50.962;5.340;2023-04-25T06:42:27;9.90;99.90
40848;DHT22;26570;50.962;5.340;2023-04-25T06:45:15;10.10;99.90
40848;DHT22;26570;50.962;5.340;2023-04-25T06:48:03;10.10;99.90
40848;DHT22;26570;50.962;5.340;2023-04-25T06:50:48;10.10;99.90
40848;DHT22;26570;50.962;5.340;2023-04-25T06:53:33;10.20;99.90
40848;DHT22;26570;50.962;5.340;2023-04-25T06:56:22;10.40;99.90
40848;DHT22;26570;50.962;5.340;2023-04-25T06:59:08;10.40;99.90
40848;DHT22;26570;50.962;5.340;2023-04-25T07:02:21;10.30;99.90
40848;DHT22;26570;50.962;5.340;2023-04-25T07:05:08;10.50;99.90
40848;DHT22;26570;50.962;5.340;2023-04-25T07:07:54;10.30;99.90
40848;DHT22;26570;50.962;5.340;2023-04-25T07:10:40;9.90;99.90
40848;DHT22;26570;50.962;5.340;2023-04-25T07:13:26;9.80;99.90
40848;DHT22;26570;50.962;5.340;2023-04-25T07:16:12;10.00;99.90
40848;DHT22;26570;50.962;5.340;2023-04-25T07:18:58;10.10;99.90
40848;DHT22;26570;50.962;5.340;2023-04-25T07:22:07;10.10;99.90
40848;DHT22;26570;50.962;5.340;2023-04-25T07:25:15;10.50;99.90
40848;DHT22;26570;50.962;5.340;2023-04-25T07:28:00;10.90;99.90
40848;DHT22;26570;50.962;5.340;2023-04-25T07:30:46;11.00;99.90
40848;DHT22;26570;50.962;5.340;2023-04-25T07:33:54;11.20;99.90
40848;DHT22;26570;50.962;5.340;2023-04-25T07:36:40;11.30;99.90
40848;DHT22;26570;50.962;5.340;2023-04-25T07:39:26;11.20;99.90
40848;DHT22;26570;50.962;5.340;2023-04-25T07:42:39;11.20;99.90
40848;DHT22;26570;50.962;5.340;2023-04-25T07:45:25;11.10;99.90
40848;DHT22;26570;50.962;5.340;2023-04-25T07:48:13;11.00;99.90
40848;DHT22;26570;50.962;5.340;2023-04-25T07:51:02;11.00;99.90
40848;DHT22;26570;50.962;5.340;2023-04-25T07:54:14;11.10;99.90
40848;DHT22;26570;50.962;5.340;2023-04-25T07:57:23;11.10;99.90
40848;DHT22;26570;50.962;5.340;2023-04-25T08:00:09;11.30;99.90
40848;DHT22;26570;50.962;5.340;2023-04-25T08:02:59;11.20;99.90
40848;DHT22;26570;50.962;5.340;2023-04-25T08:05:45;11.20;99.90
40848;DHT22;26570;50.962;5.340;2023-04-25T08:08:30;11.10;99.90
40848;DHT22;26570;50.962;5.340;2023-04-25T08:11:15;11.00;99.90
40848;DHT22;26570;50.962;5.340;2023-04-25T08:14:00;11.00;99.90
40848;DHT22;26570;50.962;5.340;2023-04-25T08:16:45;11.10;99.90
40848;DHT22;26570;50.962;5.340;2023-04-25T08:19:30;11.10;99.90
40848;DHT22;26570;50.962;5.340;2023-04-25T08:22:16;11.10;99.90
40848;DHT22;26570;50.962;5.340;2023-04-25T08:25:04;11.40;99.90
40848;DHT22;26570;50.962;5.340;2023-04-25T08:27:49;11.60;99.90
40848;DHT22;26570;50.962;5.340;2023-04-25T08:30:34;11.50;99.90
40848;DHT22;26570;50.962;5.340;2023-04-25T08:33:19;11.50;99.90
40848;DHT22;26570;50.962;5.340;2023-04-25T08:36:29;11.50;99.90
40848;DHT22;26570;50.962;5.340;2023-04-25T08:39:17;11.80;99.90
40848;DHT22;26570;50.962;5.340;2023-04-25T08:42:06;11.30;99.90
40848;DHT22;26570;50.962;5.340;2023-04-25T08:44:56;11.30;99.90
40848;DHT22;26570;50.962;5.340;2023-04-25T08:47:45;11.30;99.90
40848;DHT22;26570;50.962;5.340;2023-04-25T08:50:34;11.40;99.90
40848;DHT22;26570;50.962;5.340;2023-04-25T08:53:31;11.30;99.90
40848;DHT22;26570;50.962;5.340;2023-04-25T08:56:18;11.00;99.90
40848;DHT22;26570;50.962;5.340;2023-04-25T08:59:05;11.10;99.90
40848;DHT22;26570;50.962;5.340;2023-04-25T09:01:53;11.30;99.90
40848;DHT22;26570;50.962;5.340;2023-04-25T09:04:40;11.20;99.90
40848;DHT22;26570;50.962;5.340;2023-04-25T09:07:26;11.50;99.90
40848;DHT22;26570;50.962;5.340;2023-04-25T09:10:12;11.60;99.90
40848;DHT22;26570;50.962;5.340;2023-04-25T09:13:12;11.60;99.90
40848;DHT22;26570;50.962;5.340;2023-04-25T09:15:58;11.50;99.90
40848;DHT22;26570;50.962;5.340;2023-04-25T09:18:44;11.80;99.90
40848;DHT22;26570;50.962;5.340;2023-04-25T09:21:32;12.20;99.90
40848;DHT22;26570;50.962;5.340;2023-04-25T09:24:37;12.40;99.90
40848;DHT22;26570;50.962;5.340;2023-04-25T09:27:23;13.00;99.90
40848;DHT22;26570;50.962;5.340;2023-04-25T09:30:12;13.60;99.90
40848;DHT22;26570;50.962;5.340;2023-04-25T09:33:07;14.00;99.90
40848;DHT22;26570;50.962;5.340;2023-04-25T09:35:56;15.10;99.90
40848;DHT22;26570;50.962;5.340;2023-04-25T09:38:46;14.90;97.10
40848;DHT22;26570;50.962;5.340;2023-04-25T09:41:33;14.90;97.50
40848;DHT22;26570;50.962;5.340;2023-04-25T09:44:46;15.20;99.10
40848;DHT22;26570;50.962;5.340;2023-04-25T09:47:37;15.90;96.40
40848;DHT22;26570;50.962;5.340;2023-04-25T09:50:24;16.20;95.20
40848;DHT22;26570;50.962;5.340;2023-04-25T09:53:11;16.50;95.60
40848;DHT22;26570;50.962;5.340;2023-04-25T09:56:20;16.60;95.30
40848;DHT22;26570;50.962;5.340;2023-04-25T09:59:07;15.70;95.40
40848;DHT22;26570;50.962;5.340;2023-04-25T10:01:54;15.50;93.20
40848;DHT22;26570;50.962;5.340;2023-04-25T10:04:41;14.80;94.20
40848;DHT22;26570;50.962;5.340;2023-04-25T10:07:30;14.40;95.40
40848;DHT22;26570;50.962;5.340;2023-04-25T10:10:16;14.40;96.30
40848;DHT22;26570;50.962;5.340;2023-04-25T10:13:04;14.20;96.60
40848;DHT22;26570;50.962;5.340;2023-04-25T10:15:52;14.10;96.30
40848;DHT22;26570;50.962;5.340;2023-04-25T10:19:01;13.70;98.70
40848;DHT22;26570;50.962;5.340;2023-04-25T10:21:54;13.40;97.60
40848;DHT22;26570;50.962;5.340;2023-04-25T10:24:41;13.20;99.90
40848;DHT22;26570;50.962;5.340;2023-04-25T10:27:29;13.10;99.90
40848;DHT22;26570;50.962;5.340;2023-04-25T10:30:16;12.60;99.90
40848;DHT22;26570;50.962;5.340;2023-04-25T10:33:01;12.10;99.90
40848;DHT22;26570;50.962;5.340;2023-04-25T10:35:47;12.10;99.90
40848;DHT22;26570;50.962;5.340;2023-04-25T10:38:32;12.00;99.90
40848;DHT22;26570;50.962;5.340;2023-04-25T10:41:20;11.70;99.90
40848;DHT22;26570;50.962;5.340;2023-04-25T10:44:06;11.50;99.90
40848;DHT22;26570;50.962;5.340;2023-04-25T10:46:55;11.90;99.90
40848;DHT22;26570;50.962;5.340;2023-04-25T10:49:43;11.80;99.90
40848;DHT22;26570;50.962;5.340;2023-04-25T10:52:33;12.00;99.90
40848;DHT22;26570;50.962;5.340;2023-04-25T10:55:50;12.10;99.90
40848;DHT22;26570;50.962;5.340;2023-04-25T10:58:41;12.10;99.70
40848;DHT22;26570;50.962;5.340;2023-04-25T11:01:26;12.10;99.90
40848;DHT22;26570;50.962;5.340;2023-04-25T11:04:32;12.10;99.90
40848;DHT22;26570;50.962;5.340;2023-04-25T11:07:49;11.80;99.30
40848;DHT22;26570;50.962;5.340;2023-04-25T11:10:38;11.80;98.80
40848;DHT22;26570;50.962;5.340;2023-04-25T11:13:29;11.60;99.20
40848;DHT22;26570;50.962;5.340;2023-04-25T11:16:15;11.90;99.30
40848;DHT22;26570;50.962;5.340;2023-04-25T11:19:24;12.00;98.20
40848;DHT22;26570;50.962;5.340;2023-04-25T11:22:10;12.20;98.30
40848;DHT22;26570;50.962;5.340;2023-04-25T11:24:56;12.40;97.80
40848;DHT22;26570;50.962;5.340;2023-04-25T11:27:57;12.50;97.70
40848;DHT22;26570;50.962;5.340;2023-04-25T11:30:48;12.80;98.80
40848;DHT22;26570;50.962;5.340;2023-04-25T11:33:40;13.20;97.80
40848;DHT22;26570;50.962;5.340;2023-04-25T11:36:26;13.50;97.60
40848;DHT22;26570;50.962;5.340;2023-04-25T11:39:12;14.00;96.40
40848;DHT22;26570;50.962;5.340;2023-04-25T11:42:01;14.20;96.40
40848;DHT22;26570;50.962;5.340;2023-04-25T11:44:49;14.00;95.60
40848;DHT22;26570;50.962;5.340;2023-04-25T11:47:35;14.10;97.20
40848;DHT22;26570;50.962;5.340;2023-04-25T11:50:22;14.10;95.50
40848;DHT22;26570;50.962;5.340;2023-04-25T11:53:07;14.00;95.80
40848;DHT22;26570;50.962;5.340;2023-04-25T11:56:16;14.40;95.40
40848;DHT22;26570;50.962;5.340;2023-04-25T11:59:08;14.50;95.20
40848;DHT22;26570;50.962;5.340;2023-04-25T12:01:54;14.90;94.30
40848;DHT22;26570;50.962;5.340;2023-04-25T12:04:41;14.90;95.10
40848;DHT22;26570;50.962;5.340;2023-04-25T12:07:31;15.20;94.30
40848;DHT22;26570;50.962;5.340;2023-04-25T12:10:18;15.70;92.70
40848;DHT22;26570;50.962;5.340;2023-04-25T12:13:24;15.40;91.50
40848;DHT22;26570;50.962;5.340;2023-04-25T12:16:43;15.10;90.20
40848;DHT22;26570;50.962;5.340;2023-04-25T12:19:36;14.50;92.00
40848;DHT22;26570;50.962;5.340;2023-04-25T12:22:24;14.20;92.50
40848;DHT22;26570;50.962;5.340;2023-04-25T12:25:42;13.40;96.90
40848;DHT22;26570;50.962;5.340;2023-04-25T12:28:32;12.50;99.90
40848;DHT22;26570;50.962;5.340;2023-04-25T12:31:17;12.10;99.90
40848;DHT22;26570;50.962;5.340;2023-04-25T12:34:03;11.50;99.90
40848;DHT22;26570;50.962;5.340;2023-04-25T12:36:50;11.30;99.90
40848;DHT22;26570;50.962;5.340;2023-04-25T12:39:36;11.20;99.90
40848;DHT22;26570;50.962;5.340;2023-04-25T12:42:22;11.00;99.90
40848;DHT22;26570;50.962;5.340;2023-04-25T12:45:08;11.00;99.90
40848;DHT22;26570;50.962;5.340;2023-04-25T12:47:55;11.30;99.90
40848;DHT22;26570;50.962;5.340;2023-04-25T12:50:41;11.70;99.90
40848;DHT22;26570;50.962;5.340;2023-04-25T12:53:27;11.90;99.90
40848;DHT22;26570;50.962;5.340;2023-04-25T12:56:35;12.30;99.90
40848;DHT22;26570;50.962;5.340;2023-04-25T12:59:20;12.60;99.90
40848;DHT22;26570;50.962;5.340;2023-04-25T13:02:07;12.90;99.90
40848;DHT22;26570;50.962;5.340;2023-04-25T13:04:53;13.30;99.90
40848;DHT22;26570;50.962;5.340;2023-04-25T13:07:39;13.70;99.80
40848;DHT22;26570;50.962;5.340;2023-04-25T13:10:25;14.00;99.80
40848;DHT22;26570;50.962;5.340;2023-04-25T13:13:12;14.60;97.30
40848;DHT22;26570;50.962;5.340;2023-04-25T13:15:58;14.80;95.40
40848;DHT22;26570;50.962;5.340;2023-04-25T13:18:44;15.10;94.80
40848;DHT22;26570;50.962;5.340;2023-04-25T13:25:46;15.10;96.70
40848;DHT22;26570;50.962;5.340;2023-04-25T13:28:32;14.40;97.00
40848;DHT22;26570;50.962;5.340;2023-04-25T13:31:18;14.00;97.20
40848;DHT22;26570;50.962;5.340;2023-04-25T13:34:26;14.10;98.30
40848;DHT22;26570;50.962;5.340;2023-04-25T13:37:11;13.90;97.00
40848;DHT22;26570;50.962;5.340;2023-04-25T13:39:59;13.40;96.40
40848;DHT22;26570;50.962;5.340;2023-04-25T13:42:44;13.50;95.70
40848;DHT22;26570;50.962;5.340;2023-04-25T13:45:30;13.30;95.40
40848;DHT22;26570;50.962;5.340;2023-04-25T13:48:17;13.20;95.70
40848;DHT22;26570;50.962;5.340;2023-04-25T13:51:03;13.30;96.60
40848;DHT22;26570;50.962;5.340;2023-04-25T13:53:49;13.80;96.70
40848;DHT22;26570;50.962;5.340;2023-04-25T13:56:35;14.10;95.80
40848;DHT22;26570;50.962;5.340;2023-04-25T13:59:21;14.20;94.70
40848;DHT22;26570;50.962;5.340;2023-04-25T14:02:07;14.20;94.70
40848;DHT22;26570;50.962;5.340;2023-04-25T14:04:56;14.20;93.70
40848;DHT22;26570;50.962;5.340;2023-04-25T14:08:05;13.50;95.50
40848;DHT22;26570;50.962;5.340;2023-04-25T14:10:51;13.20;95.80
40848;DHT22;26570;50.962;5.340;2023-04-25T14:13:36;13.00;95.80
40848;DHT22;26570;50.962;5.340;2023-04-25T14:16:22;13.00;96.50
40848;DHT22;26570;50.962;5.340;2023-04-25T14:19:09;13.10;96.90
40848;DHT22;26570;50.962;5.340;2023-04-25T14:21:55;13.30;96.50
40848;DHT22;26570;50.962;5.340;2023-04-25T14:24:41;13.50;96.20
40848;DHT22;26570;50.962;5.340;2023-04-25T14:27:27;13.60;95.90
40848;DHT22;26570;50.962;5.340;2023-04-25T14:30:13;13.80;95.60
40848;DHT22;26570;50.962;5.340;2023-04-25T14:32:59;13.90;94.20
40848;DHT22;26570;50.962;5.340;2023-04-25T14:35:45;14.00;94.90
40848;DHT22;26570;50.962;5.340;2023-04-25T14:38:31;13.90;96.00
40848;DHT22;26570;50.962;5.340;2023-04-25T14:41:17;14.00;94.30
40848;DHT22;26570;50.962;5.340;2023-04-25T14:44:02;13.80;94.30
40848;DHT22;26570;50.962;5.340;2023-04-25T14:46:48;13.70;95.00
40848;DHT22;26570;50.962;5.340;2023-04-25T14:49:58;13.60;95.50
40848;DHT22;26570;50.962;5.340;2023-04-25T14:52:44;13.70;96.70
40848;DHT22;26570;50.962;5.340;2023-04-25T14:55:30;13.90;96.20
40848;DHT22;26570;50.962;5.340;2023-04-25T14:58:15;14.20;95.70
40848;DHT22;26570;50.962;5.340;2023-04-25T15:01:01;13.80;95.00
40848;DHT22;26570;50.962;5.340;2023-04-25T15:03:47;13.70;96.70
40848;DHT22;26570;50.962;5.340;2023-04-25T15:06:33;13.60;94.80
40848;DHT22;26570;50.962;5.340;2023-04-25T15:09:19;13.30;94.70
40848;DHT22;26570;50.962;5.340;2023-04-25T15:12:06;13.20;96.30
40848;DHT22;26570;50.962;5.340;2023-04-25T15:14:51;13.40;95.50
40848;DHT22;26570;50.962;5.340;2023-04-25T15:17:44;13.40;95.80
40848;DHT22;26570;50.962;5.340;2023-04-25T15:20:29;13.60;96.00
40848;DHT22;26570;50.962;5.340;2023-04-25T15:23:16;13.70;96.40
40848;DHT22;26570;50.962;5.340;2023-04-25T15:26:02;13.60;96.60
40848;DHT22;26570;50.962;5.340;2023-04-25T15:28:48;13.60;96.20
40848;DHT22;26570;50.962;5.340;2023-04-25T15:31:33;13.40;96.50
40848;DHT22;26570;50.962;5.340;2023-04-25T15:34:41;13.00;96.70
40848;DHT22;26570;50.962;5.340;2023-04-25T15:37:27;13.10;98.40
40848;DHT22;26570;50.962;5.340;2023-04-25T15:40:16;12.80;98.10
40848;DHT22;26570;50.962;5.340;2023-04-25T15:43:02;13.10;98.00
40848;DHT22;26570;50.962;5.340;2023-04-25T15:45:48;13.30;96.50
40848;DHT22;26570;50.962;5.340;2023-04-25T15:48:34;13.20;97.40
40848;DHT22;26570;50.962;5.340;2023-04-25T15:51:20;13.20;96.40
40848;DHT22;26570;50.962;5.340;2023-04-25T15:54:06;13.00;96.70
40848;DHT22;26570;50.962;5.340;2023-04-25T15:56:52;13.10;97.10
40848;DHT22;26570;50.962;5.340;2023-04-25T15:59:37;13.30;95.70
40848;DHT22;26570;50.962;5.340;2023-04-25T16:02:23;13.20;96.20
40848;DHT22;26570;50.962;5.340;2023-04-25T16:05:09;13.10;97.10
40848;DHT22;26570;50.962;5.340;2023-04-25T16:07:54;12.80;96.30
40848;DHT22;26570;50.962;5.340;2023-04-25T16:10:40;12.90;97.30
40848;DHT22;26570;50.962;5.340;2023-04-25T16:13:25;12.90;97.90
40848;DHT22;26570;50.962;5.340;2023-04-25T16:16:13;12.80;98.40
40848;DHT22;26570;50.962;5.340;2023-04-25T16:18:58;12.80;98.40
40848;DHT22;26570;50.962;5.340;2023-04-25T16:22:06;13.10;97.70
40848;DHT22;26570;50.962;5.340;2023-04-25T16:24:53;13.40;96.70
40848;DHT22;26570;50.962;5.340;2023-04-25T16:27:39;13.50;97.60
40848;DHT22;26570;50.962;5.340;2023-04-25T16:30:25;13.90;96.40
40848;DHT22;26570;50.962;5.340;2023-04-25T16:33:10;14.30;96.30
40848;DHT22;26570;50.962;5.340;2023-04-25T16:35:55;14.30;94.00
40848;DHT22;26570;50.962;5.340;2023-04-25T16:38:41;14.50;92.10
40848;DHT22;26570;50.962;5.340;2023-04-25T16:41:27;14.30;90.80
40848;DHT22;26570;50.962;5.340;2023-04-25T16:44:12;14.10;91.40
40848;DHT22;26570;50.962;5.340;2023-04-25T16:46:58;14.20;91.40
40848;DHT22;26570;50.962;5.340;2023-04-25T16:49:43;14.20;91.30
40848;DHT22;26570;50.962;5.340;2023-04-25T16:52:51;14.00;91.40
40848;DHT22;26570;50.962;5.340;2023-04-25T16:55:38;13.40;92.00
40848;DHT22;26570;50.962;5.340;2023-04-25T16:58:23;13.10;93.40
40848;DHT22;26570;50.962;5.340;2023-04-25T17:01:11;12.80;94.10
40848;DHT22;26570;50.962;5.340;2023-04-25T17:03:59;12.50;94.80
40848;DHT22;26570;50.962;5.340;2023-04-25T17:06:45;12.70;94.50
40848;DHT22;26570;50.962;5.340;2023-04-25T17:09:31;12.60;93.80
40848;DHT22;26570;50.962;5.340;2023-04-25T17:12:20;12.20;95.00
40848;DHT22;26570;50.962;5.340;2023-04-25T17:15:08;11.90;95.70
40848;DHT22;26570;50.962;5.340;2023-04-25T17:17:53;11.90;97.20
40848;DHT22;26570;50.962;5.340;2023-04-25T17:20:39;11.80;96.70
40848;DHT22;26570;50.962;5.340;2023-04-25T17:23:27;11.80;97.60
40848;DHT22;26570;50.962;5.340;2023-04-25T17:26:15;12.00;96.50
40848;DHT22;26570;50.962;5.340;2023-04-25T17:29:02;11.80;96.70
40848;DHT22;26570;50.962;5.340;2023-04-25T17:32:10;11.90;97.50
40848;DHT22;26570;50.962;5.340;2023-04-25T17:34:55;12.10;96.50
40848;DHT22;26570;50.962;5.340;2023-04-25T17:37:41;11.90;97.30
40848;DHT22;26570;50.962;5.340;2023-04-25T17:40:27;11.80;98.10
40848;DHT22;26570;50.962;5.340;2023-04-25T17:43:13;11.50;98.60
40848;DHT22;26570;50.962;5.340;2023-04-25T17:45:58;11.40;99.80
40848;DHT22;26570;50.962;5.340;2023-04-25T17:48:44;11.40;99.60
40848;DHT22;26570;50.962;5.340;2023-04-25T17:51:30;11.30;99.90
40848;DHT22;26570;50.962;5.340;2023-04-25T17:54:15;11.20;99.90
40848;DHT22;26570;50.962;5.340;2023-04-25T17:57:02;11.20;99.90
40848;DHT22;26570;50.962;5.340;2023-04-25T17:59:48;11.20;99.90